Time;durP1;ratioP1;P1;durP2;ratioP2;P2;SDS_P1;SDS_P2;PMS_P1;PMS_P2;Temp;Humidity;BMP_temperature;BMP_pressure;BME280_temperature;BME280_humidity;BME280_pressure;Samples;Min_cycle;Max_cycle;Signal;HPM_P1;HPM_P2
2022/09/08 00:00:58;;;;;;;6.17;4.80;;;;;;;13.14;85.59;95784.83;1726903;83;21578;-79
2022/09/08 00:03:28;;;;;;;15.40;6.20;;;;;;;13.07;85.05;95787.20;1727173;82;21446;-78
2022/09/08 00:06:10;;;;;;;10.53;5.80;;;;;;;13.04;85.62;95783.32;1727176;83;21032;-78
2022/09/08 00:08:37;;;;;;;10.65;5.70;;;;;;;13.06;85.11;95776.67;1727075;82;21447;-78
2022/09/08 00:11:07;;;;;;;12.43;5.60;;;;;;;13.02;85.59;95777.64;1726729;83;21035;-78
2022/09/08 00:13:38;;;;;;;9.15;5.22;;;;;;;12.94;85.72;95772.54;1727302;83;21080;-78
2022/09/08 00:16:07;;;;;;;10.08;5.97;;;;;;;12.87;85.60;95772.27;1727172;83;20989;-79
2022/09/08 00:18:35;;;;;;;11.38;5.58;;;;;;;12.86;85.77;95770.08;1727269;83;21016;-78
2022/09/08 00:21:02;;;;;;;11.10;5.95;;;;;;;12.95;86.08;95772.52;1727433;83;21036;-79
2022/09/08 00:23:29;;;;;;;6.85;5.58;;;;;;;12.95;85.51;95779.14;1727253;83;21016;-78
2022/09/08 00:25:56;;;;;;;13.68;5.40;;;;;;;12.90;85.37;95769.54;1726987;82;21092;-78
2022/09/08 00:28:22;;;;;;;8.83;5.42;;;;;;;12.87;85.04;95771.81;1700341;83;21103;-78
2022/09/08 00:30:49;;;;;;;7.40;5.70;;;;;;;12.78;84.91;95783.97;1727316;82;21526;-78
2022/09/08 00:33:15;;;;;;;7.78;5.47;;;;;;;12.77;85.60;95776.92;1727270;83;21083;-78
2022/09/08 00:35:43;;;;;;;9.15;6.03;;;;;;;12.85;86.27;95771.01;1726977;83;21530;-78
2022/09/08 00:38:12;;;;;;;13.35;5.70;;;;;;;12.87;85.81;95774.45;1727425;83;21020;-78
2022/09/08 00:40:46;;;;;;;9.35;5.30;;;;;;;12.89;85.67;95773.11;1727131;83;21467;-79
2022/09/08 00:43:41;;;;;;;9.85;5.67;;;;;;;12.85;85.11;95772.33;1726956;82;21036;-78
2022/09/08 00:46:19;;;;;;;11.70;5.15;;;;;;;12.85;85.51;95774.98;1646977;85;21030;-79
2022/09/08 00:48:59;;;;;;;8.73;5.15;;;;;;;12.87;85.37;95774.45;1708160;83;21041;-78
2022/09/08 00:51:27;;;;;;;8.83;6.03;;;;;;;12.77;84.84;95772.52;1721592;82;21155;-79
2022/09/08 00:53:57;;;;;;;11.60;5.92;;;;;;;12.69;85.78;95778.43;1721779;83;21515;-78
2022/09/08 00:56:26;;;;;;;8.15;5.78;;;;;;;12.69;85.73;95773.13;1721504;83;21506;-78
2022/09/08 00:58:55;;;;;;;7.45;5.50;;;;;;;12.73;86.05;95779.24;1721727;83;20997;-78
2022/09/08 01:01:21;;;;;;;12.28;6.03;;;;;;;12.70;85.67;95777.54;1721825;82;21076;-78
2022/09/08 01:03:48;;;;;;;11.85;5.95;;;;;;;12.71;86.09;95770.46;1721258;83;21081;-77
2022/09/08 01:12:43;;;;;;;7.62;6.05;;;;;;;12.77;86.61;95771.63;1721583;83;21072;-78
2022/09/08 01:14:48;;;;;;;9.83;7.65;;;;;;;12.87;85.22;95762.55;1721801;82;21503;-78
2022/09/08 01:17:18;;;;;;;19.42;8.98;;;;;;;12.88;85.51;95766.09;1720538;83;21583;-78
2022/09/08 01:19:46;;;;;;;16.17;8.05;;;;;;;12.86;85.23;95765.25;1721695;83;21056;-78
2022/09/08 01:22:26;;;;;;;8.55;6.35;;;;;;;12.83;85.91;95766.66;1721693;83;21017;-78
2022/09/08 01:25:07;;;;;;;12.43;7.70;;;;;;;12.69;84.71;95774.45;1721562;83;21056;-79
2022/09/08 01:27:37;;;;;;;12.28;7.67;;;;;;;12.58;84.91;95771.67;1720249;83;21044;-79
2022/09/08 01:30:08;;;;;;;10.65;6.92;;;;;;;12.47;85.52;95768.82;1721862;82;21001;-79
2022/09/08 01:32:42;;;;;;;10.35;7.58;;;;;;;12.37;85.82;95775.66;1721547;82;21553;-79
2022/09/08 01:35:09;;;;;;;9.60;7.42;;;;;;;12.32;85.80;95775.33;1721851;82;21495;-78
2022/09/08 01:37:36;;;;;;;18.30;7.95;;;;;;;12.28;85.95;95772.33;1721418;83;21080;-78
2022/09/08 01:40:04;;;;;;;10.00;8.05;;;;;;;12.24;85.98;95773.28;1721676;83;21013;-78
2022/09/08 01:42:31;;;;;;;11.57;7.53;;;;;;;12.26;86.19;95771.94;1721606;83;21487;-78
2022/09/08 01:44:57;;;;;;;11.35;7.83;;;;;;;12.27;86.47;95767.05;1721959;82;21008;-77
2022/09/08 01:47:24;;;;;;;10.75;7.37;;;;;;;12.29;86.24;95769.22;1726787;83;21127;-78
2022/09/08 01:49:50;;;;;;;13.45;7.30;;;;;;;12.28;85.98;95765.70;1727193;82;20997;-78
2022/09/08 01:52:17;;;;;;;13.18;7.60;;;;;;;12.23;85.65;95758.79;1726569;83;21044;-78
2022/09/08 01:54:44;;;;;;;15.60;6.87;;;;;;;12.21;86.06;95762.78;1727211;83;21032;-77
2022/09/08 01:57:10;;;;;;;14.78;8.20;;;;;;;12.20;86.08;95763.70;1726915;83;21033;-78
2022/09/08 01:59:37;;;;;;;9.20;6.92;;;;;;;12.20;86.53;95757.08;1727097;83;21056;-78
2022/09/08 02:02:04;;;;;;;9.85;6.33;;;;;;;12.24;86.61;95752.58;1727119;82;21040;-78
2022/09/08 02:04:30;;;;;;;16.20;6.70;;;;;;;12.21;86.16;95756.16;1727286;82;21033;-78
2022/09/08 02:06:57;;;;;;;8.75;6.33;;;;;;;12.22;86.58;95749.09;1727417;83;21044;-78
2022/09/08 02:09:23;;;;;;;10.70;6.25;;;;;;;12.25;86.57;95753.02;1726964;83;21076;-78
2022/09/08 02:11:51;;;;;;;11.68;5.53;;;;;;;12.25;87.08;95755.20;1727192;82;21043;-78
2022/09/08 02:14:18;;;;;;;8.43;6.10;;;;;;;12.21;87.08;95747.36;1726726;83;21108;-79
2022/09/08 02:16:44;;;;;;;13.18;6.50;;;;;;;12.21;86.94;95746.91;1727425;83;20982;-78
2022/09/08 02:19:12;;;;;;;10.58;6.20;;;;;;;12.19;86.75;95748.70;1727298;82;21060;-78
2022/09/08 02:21:39;;;;;;;9.13;5.80;;;;;;;12.23;86.90;95743.78;1727325;83;21032;-78
2022/09/08 02:24:06;;;;;;;6.85;5.53;;;;;;;12.22;87.03;95749.09;1727148;83;21044;-78
2022/09/08 02:26:33;;;;;;;7.80;5.15;;;;;;;12.21;86.74;95742.08;1727225;83;21056;-77
2022/09/08 02:29:00;;;;;;;8.68;5.60;;;;;;;12.25;86.90;95735.82;1727151;83;21024;-77
2022/09/08 02:31:28;;;;;;;5.92;4.62;;;;;;;12.25;86.27;95738.47;1727419;83;20976;-78
2022/09/08 02:33:55;;;;;;;13.15;5.47;;;;;;;12.18;86.44;95735.53;1727165;83;21021;-77
2022/09/08 02:36:21;;;;;;;4.92;4.45;;;;;;;12.14;86.22;95737.36;1726775;83;21056;-79
2022/09/08 02:38:50;;;;;;;12.20;5.70;;;;;;;12.05;85.56;95747.70;1727526;83;21000;-78
2022/09/08 02:41:17;;;;;;;8.03;5.45;;;;;;;12.04;86.57;95743.30;1727215;83;21032;-78
2022/09/08 02:43:44;;;;;;;10.65;5.05;;;;;;;12.08;86.60;95737.52;1727173;83;21085;-78
2022/09/08 02:46:11;;;;;;;12.37;5.83;;;;;;;12.13;86.82;95739.14;1727068;82;21028;-78
2022/09/08 02:48:38;;;;;;;9.33;5.42;;;;;;;12.24;86.89;95738.89;1726830;83;21001;-78
2022/09/08 02:51:10;;;;;;;7.85;4.90;;;;;;;12.32;86.92;95736.97;1726953;83;21518;-79
2022/09/08 02:53:38;;;;;;;11.38;5.30;;;;;;;12.27;86.00;95737.53;1727542;83;21048;-78
2022/09/08 02:56:06;;;;;;;9.60;5.45;;;;;;;12.23;86.33;95741.14;1726962;83;21041;-78
2022/09/08 02:58:34;;;;;;;6.85;5.10;;;;;;;12.17;86.44;95740.39;1727096;82;21506;-78
2022/09/08 03:01:01;;;;;;;10.28;5.20;;;;;;;12.18;86.76;95739.05;1727288;83;21518;-78
2022/09/08 03:03:28;;;;;;;8.50;5.80;;;;;;;12.24;86.52;95744.19;1727120;83;21004;-78
2022/09/08 03:05:55;;;;;;;8.38;5.55;;;;;;;12.27;86.54;95743.25;1726933;83;21072;-77
2022/09/08 03:08:24;;;;;;;9.48;5.25;;;;;;;12.29;86.45;95737.02;1727135;83;21036;-78
2022/09/08 03:10:51;;;;;;;10.45;5.50;;;;;;;12.30;86.09;95736.59;1727089;83;21032;-78
2022/09/08 03:13:18;;;;;;;10.08;4.40;;;;;;;12.33;86.25;95729.89;1727049;83;21055;-78
2022/09/08 03:15:44;;;;;;;9.05;5.00;;;;;;;12.28;85.38;95735.28;1727365;83;21025;-78
2022/09/08 03:18:11;;;;;;;12.60;6.28;;;;;;;12.15;85.59;95732.97;1727187;83;21499;-78
2022/09/08 03:20:40;;;;;;;9.98;5.12;;;;;;;12.06;85.52;95736.22;1727285;83;21080;-78
2022/09/08 03:23:06;;;;;;;7.92;5.33;;;;;;;12.04;86.20;95735.83;1727210;83;21056;-78
2022/09/08 03:25:36;;;;;;;7.90;5.17;;;;;;;12.06;86.54;95736.22;1727117;83;21107;-78
2022/09/08 03:28:05;;;;;;;9.83;5.83;;;;;;;12.10;86.53;95741.87;1726985;83;21060;-78
2022/09/08 03:30:32;;;;;;;8.93;5.58;;;;;;;12.12;86.27;95735.23;1726970;83;21005;-78
2022/09/08 03:32:59;;;;;;;8.38;5.65;;;;;;;12.05;85.57;95736.27;1726988;83;21059;-78
2022/09/08 03:35:25;;;;;;;7.85;5.30;;;;;;;11.99;85.63;95738.56;1727269;83;21471;-78
2022/09/08 03:37:54;;;;;;;10.48;5.28;;;;;;;11.98;85.64;95740.80;1727236;83;21075;-78
2022/09/08 03:40:21;;;;;;;8.63;5.37;;;;;;;11.96;85.49;95736.45;1727211;83;21083;-78
2022/09/08 03:42:47;;;;;;;11.70;5.28;;;;;;;11.95;85.78;95735.59;1727002;82;21008;-78
2022/09/08 03:45:17;;;;;;;12.95;5.42;;;;;;;12.00;86.38;95727.56;1727006;83;21105;-77
2022/09/08 03:47:45;;;;;;;7.87;5.10;;;;;;;11.98;85.53;95734.66;1727228;83;21494;-77
2022/09/08 03:50:15;;;;;;;10.10;5.20;;;;;;;11.96;85.49;95725.87;1727185;83;21036;-78
2022/09/08 03:52:42;;;;;;;6.12;5.10;;;;;;;11.88;85.11;95733.52;1726941;83;21565;-78
2022/09/08 03:55:11;;;;;;;6.95;5.95;;;;;;;11.85;85.85;95734.88;1727263;83;21027;-78
2022/09/08 03:57:39;;;;;;;6.90;5.33;;;;;;;11.81;86.61;95733.66;1727056;83;21060;-78
2022/09/08 04:00:08;;;;;;;8.93;5.72;;;;;;;11.85;86.88;95739.30;1727173;83;21047;-78
2022/09/08 04:02:41;;;;;;;13.10;5.53;;;;;;;11.85;86.16;95738.84;1727037;83;21052;-78
2022/09/08 04:05:09;;;;;;;14.65;7.87;;;;;;;11.82;86.78;95743.34;1727190;83;21060;-78
2022/09/08 04:07:38;;;;;;;8.40;5.58;;;;;;;11.84;86.88;95738.44;1727109;83;21012;-78
2022/09/08 04:10:07;;;;;;;11.50;5.67;;;;;;;11.86;86.53;95745.89;1727197;82;21008;-78
2022/09/08 04:12:34;;;;;;;10.05;5.70;;;;;;;11.94;86.70;95754.13;1726659;83;21482;-78
2022/09/08 04:15:01;;;;;;;7.87;4.72;;;;;;;11.89;85.96;95749.83;1727373;83;20997;-77
2022/09/08 04:17:27;;;;;;;8.65;5.67;;;;;;;11.83;85.92;95747.72;1726910;83;21028;-77
2022/09/08 04:19:54;;;;;;;9.13;5.42;;;;;;;11.90;86.39;95753.33;1726653;83;20992;-77
2022/09/08 04:22:22;;;;;;;9.33;5.33;;;;;;;11.94;86.11;95747.52;1727204;83;21455;-77
2022/09/08 04:24:49;;;;;;;5.83;5.05;;;;;;;11.90;85.52;95747.58;1727482;83;21056;-77
2022/09/08 04:27:18;;;;;;;9.60;5.53;;;;;;;11.93;86.15;95747.11;1727122;82;21016;-77
2022/09/08 04:29:45;;;;;;;8.05;5.37;;;;;;;12.00;86.57;95746.08;1727373;83;21509;-77
2022/09/08 04:32:12;;;;;;;11.85;5.47;;;;;;;12.10;87.07;95750.26;1726934;83;21106;-78
2022/09/08 04:34:38;;;;;;;14.73;5.55;;;;;;;12.18;86.54;95746.12;1727149;83;21020;-78
2022/09/08 04:37:06;;;;;;;12.05;5.17;;;;;;;12.13;85.93;95742.25;1727429;83;21044;-78
2022/09/08 04:39:34;;;;;;;13.53;5.47;;;;;;;12.09;86.88;95742.75;1727117;83;21024;-77
2022/09/08 04:42:01;;;;;;;11.55;6.00;;;;;;;12.16;87.08;95747.46;1726968;83;21020;-74
2022/09/08 04:44:28;;;;;;;10.40;5.50;;;;;;;12.28;87.15;95750.30;1726966;83;21024;-77
2022/09/08 04:46:54;;;;;;;9.43;5.67;;;;;;;12.37;87.12;95749.20;1724462;83;21045;-78
2022/09/08 04:49:21;;;;;;;5.92;5.33;;;;;;;12.41;86.67;95746.91;1721673;83;21542;-78
2022/09/08 04:51:50;;;;;;;5.92;5.12;;;;;;;12.41;86.30;95752.20;1721679;83;21131;-78
2022/09/08 04:54:17;;;;;;;7.12;5.03;;;;;;;12.34;86.88;95751.00;1721882;83;21036;-77
2022/09/08 04:56:44;;;;;;;6.65;4.97;;;;;;;12.43;87.25;95748.61;1721572;82;21084;-77
2022/09/08 04:59:11;;;;;;;6.05;5.25;;;;;;;12.50;86.77;95748.03;1721362;83;21119;-70
2022/09/08 05:01:37;;;;;;;8.70;6.00;;;;;;;12.49;86.17;95751.10;1721118;83;21498;-67
2022/09/08 05:04:05;;;;;;;16.70;6.20;;;;;;;12.53;86.48;95751.46;1720911;83;21064;-68
2022/09/08 05:06:34;;;;;;;11.30;6.10;;;;;;;12.66;86.63;95756.47;1721361;83;21490;-69
2022/09/08 05:09:03;;;;;;;9.38;5.67;;;;;;;12.68;86.61;95748.91;1721332;83;21570;-70
2022/09/08 05:11:31;;;;;;;10.08;6.10;;;;;;;12.78;87.66;95757.03;1721415;83;21082;-66
2022/09/08 05:13:59;;;;;;;9.23;6.20;;;;;;;12.92;87.41;95751.84;1721459;83;20981;-72
2022/09/08 05:16:28;;;;;;;9.83;6.62;;;;;;;13.06;87.64;95747.53;1721615;83;21069;-74
2022/09/08 05:18:58;;;;;;;10.25;6.55;;;;;;;13.23;87.75;95743.09;1721868;83;21522;-71
2022/09/08 05:21:27;;;;;;;7.35;6.60;;;;;;;13.38;87.46;95748.91;1721200;83;21021;-68
2022/09/08 05:23:56;;;;;;;13.03;6.50;;;;;;;13.58;87.62;95754.09;1721341;83;21130;-74
2022/09/08 05:26:24;;;;;;;12.20;7.22;;;;;;;13.69;86.49;95758.66;1721638;83;21502;-71
2022/09/08 05:28:50;;;;;;;10.00;6.90;;;;;;;13.78;86.81;95757.52;1721762;83;21017;-74
2022/09/08 05:31:21;;;;;;;8.73;6.65;;;;;;;13.90;86.75;95756.30;1721272;83;21000;-73
2022/09/08 05:33:48;;;;;;;8.70;6.83;;;;;;;13.98;86.09;95752.97;1721779;83;21061;-78
2022/09/08 05:36:21;;;;;;;10.85;6.65;;;;;;;14.22;86.57;95754.89;1693490;83;21595;-78
2022/09/08 05:38:49;;;;;;;9.03;6.47;;;;;;;14.22;86.57;95754.89;1721697;83;21032;-75
2022/09/08 05:41:16;;;;;;;9.90;6.92;;;;;;;14.53;86.03;95753.08;1721948;83;21542;-68
2022/09/08 05:43:43;;;;;;;12.55;7.35;;;;;;;14.53;86.03;95753.08;1720000;83;20984;-74
2022/09/08 05:46:11;;;;;;;10.85;6.65;;;;;;;14.64;86.08;95753.19;1720163;82;21497;-73
2022/09/08 05:48:38;;;;;;;10.72;6.58;;;;;;;14.71;84.95;95736.58;1720505;83;21131;-70
2022/09/08 05:51:10;;;;;;;10.48;7.37;;;;;;;14.76;85.06;95744.41;1691418;83;21532;-70
2022/09/08 05:53:38;;;;;;;12.40;6.92;;;;;;;14.87;85.14;95751.58;1719531;83;21122;-74
2022/09/08 05:56:07;;;;;;;17.52;7.17;;;;;;;14.99;85.24;95755.13;1711049;83;20968;-66
2022/09/08 05:58:35;;;;;;;12.40;8.73;;;;;;;15.06;84.68;95756.67;1705322;83;21015;-69
2022/09/08 06:01:10;;;;;;;16.45;10.13;;;;;;;15.19;84.98;95753.60;1704920;84;21086;-67
2022/09/08 06:03:37;;;;;;;27.37;11.30;;;;;;;15.26;84.16;95748.02;1705254;83;21047;-68
2022/09/08 06:06:08;;;;;;;20.80;13.22;;;;;;;15.34;84.00;95744.62;1705642;84;21027;-67
2022/09/08 06:08:37;;;;;;;19.60;11.55;;;;;;;15.44;83.77;95745.17;1705417;84;21090;-71
2022/09/08 06:11:04;;;;;;;21.52;12.47;;;;;;;15.54;83.73;95741.27;1705679;84;21032;-69
2022/09/08 06:13:33;;;;;;;14.68;12.13;;;;;;;15.63;83.58;95752.05;1705627;83;21063;-66
2022/09/08 06:16:09;;;;;;;12.40;9.50;;;;;;;15.69;83.16;95749.63;1705854;83;21018;-74
2022/09/08 06:18:40;;;;;;;12.40;9.55;;;;;;;15.72;82.89;95758.42;1705721;84;21099;-72
2022/09/08 06:21:23;;;;;;;10.48;9.15;;;;;;;15.76;83.09;95757.36;1705848;83;21030;-71
2022/09/08 06:23:53;;;;;;;12.55;9.80;;;;;;;15.83;83.15;95752.70;1705764;84;21066;-74
2022/09/08 06:26:31;;;;;;;14.40;9.60;;;;;;;15.89;82.88;95756.45;1705950;84;21075;-74
2022/09/08 06:29:33;;;;;;;14.90;9.60;;;;;;;15.93;83.02;95751.44;1705533;83;21535;-67
2022/09/08 06:32:31;;;;;;;14.75;9.53;;;;;;;16.00;83.06;95750.28;1705892;83;21035;-71
2022/09/08 06:35:08;;;;;;;11.38;9.60;;;;;;;16.11;82.92;95747.68;1705553;84;21046;-68
2022/09/08 06:37:56;;;;;;;12.18;9.95;;;;;;;16.23;82.81;95756.06;1706053;83;20988;-68
2022/09/08 06:40:43;;;;;;;10.60;9.60;;;;;;;16.33;82.71;95754.36;1705775;83;21031;-66
2022/09/08 06:43:35;;;;;;;10.15;8.73;;;;;;;16.42;82.58;95756.68;1705093;84;21118;-68
2022/09/08 06:46:21;;;;;;;20.48;10.82;;;;;;;16.53;82.42;95753.59;1705420;83;21066;-67
2022/09/08 06:48:48;;;;;;;11.10;8.65;;;;;;;16.64;82.43;95753.58;1705532;84;20991;-75
2022/09/08 06:52:00;;;;;;;9.93;8.93;;;;;;;16.76;81.94;95750.89;1705198;84;21015;-73
2022/09/08 06:55:03;;;;;;;12.37;7.85;;;;;;;16.86;81.71;95746.09;1705475;83;21353;-71
2022/09/08 06:57:44;;;;;;;7.67;6.97;;;;;;;17.00;80.86;95750.38;1705873;83;21058;-66
2022/09/08 07:00:24;;;;;;;7.28;6.53;;;;;;;17.13;80.78;95750.73;1705735;83;21530;-71
2022/09/08 07:03:06;;;;;;;8.45;5.87;;;;;;;17.27;80.22;95751.02;1701825;83;21000;-71
2022/09/08 07:06:02;;;;;;;10.95;6.40;;;;;;;17.35;80.28;95745.83;1704845;84;21113;-72
2022/09/08 07:08:50;;;;;;;6.50;5.50;;;;;;;17.49;80.12;95755.45;1705701;83;20992;-72
2022/09/08 07:11:42;;;;;;;7.47;5.72;;;;;;;17.66;80.37;95756.03;1705801;83;21058;-76
2022/09/08 07:14:37;;;;;;;7.15;5.65;;;;;;;17.78;79.92;95756.83;1702145;84;21161;-73
2022/09/08 07:17:29;;;;;;;6.92;6.10;;;;;;;17.96;78.91;95755.17;1705096;84;21011;-72
2022/09/08 07:19:57;;;;;;;7.50;6.70;;;;;;;18.09;79.22;95752.36;1705600;83;21556;-75
2022/09/08 07:22:44;;;;;;;5.85;5.10;;;;;;;18.21;78.48;95752.25;1704929;84;21035;-74
2022/09/08 07:25:34;;;;;;;6.93;5.03;;;;;;;18.31;77.83;95752.70;1705761;84;21624;-77
2022/09/08 07:28:15;;;;;;;5.47;4.97;;;;;;;18.33;77.52;95751.69;1705953;83;21512;-74
2022/09/08 07:30:42;;;;;;;6.40;4.97;;;;;;;18.33;77.32;95753.50;1713736;83;20983;-71
2022/09/08 07:33:19;;;;;;;5.60;4.85;;;;;;;18.30;76.92;95757.18;1715617;84;21485;-68
2022/09/08 07:36:04;;;;;;;5.15;4.65;;;;;;;18.29;77.04;95751.42;1715317;84;21064;-69
2022/09/08 07:38:47;;;;;;;5.28;4.80;;;;;;;18.22;76.44;95750.44;1716021;83;21025;-72
2022/09/08 07:41:19;;;;;;;5.62;4.87;;;;;;;18.12;76.46;95749.55;1715426;84;21009;-67
2022/09/08 07:43:50;;;;;;;5.45;4.95;;;;;;;18.10;76.95;95756.75;1685581;84;21075;-73
2022/09/08 07:46:44;;;;;;;6.12;4.87;;;;;;;18.19;77.56;95752.78;1715508;84;21542;-76
2022/09/08 07:49:22;;;;;;;5.30;4.80;;;;;;;18.29;77.13;95747.41;1715230;83;21073;-76
2022/09/08 07:52:16;;;;;;;5.45;4.85;;;;;;;18.32;76.74;95755.31;1715416;84;21118;-74
2022/09/08 07:54:54;;;;;;;5.20;4.70;;;;;;;18.41;76.94;95755.81;1685494;84;21068;-70
2022/09/08 07:57:43;;;;;;;4.83;4.40;;;;;;;18.45;76.53;95752.06;1715522;83;21076;-72
2022/09/08 08:00:24;;;;;;;5.00;4.50;;;;;;;18.40;75.68;95746.08;1715845;83;21009;-71
2022/09/08 08:03:28;;;;;;;4.45;4.08;;;;;;;18.45;76.11;95745.39;1715315;84;21029;-75
2022/09/08 08:06:19;;;;;;;5.53;4.05;;;;;;;18.47;75.22;95751.50;1716172;84;21112;-73
2022/09/08 08:09:40;;;;;;;4.25;3.85;;;;;;;18.55;75.59;95751.55;1716727;83;21001;-71
2022/09/08 08:12:27;;;;;;;5.00;3.80;;;;;;;18.63;76.00;95751.19;1716367;83;21049;-71
2022/09/08 08:15:17;;;;;;;5.47;4.53;;;;;;;18.88;76.42;95760.26;1716385;84;21016;-69
2022/09/08 08:18:11;;;;;;;5.33;4.47;;;;;;;19.03;75.19;95750.63;1716543;84;21033;-69
2022/09/08 08:20:52;;;;;;;4.55;4.15;;;;;;;19.09;74.04;95746.30;1716304;83;21543;-70
2022/09/08 08:23:44;;;;;;;7.30;4.40;;;;;;;19.23;73.87;95742.94;1715922;83;21001;-70
2022/09/08 08:26:51;;;;;;;7.00;5.28;;;;;;;19.31;73.06;95747.43;1716496;83;21013;-74
2022/09/08 08:29:44;;;;;;;5.75;5.17;;;;;;;19.41;73.21;95752.70;1715648;83;21041;-73
2022/09/08 08:32:16;;;;;;;5.28;4.80;;;;;;;19.54;72.42;95747.59;1715896;84;21041;-76
2022/09/08 08:34:59;;;;;;;5.40;4.90;;;;;;;19.50;72.56;95750.49;1716663;83;21037;-75
2022/09/08 08:37:30;;;;;;;5.95;5.45;;;;;;;19.54;72.63;95748.06;1711181;84;21037;-72
2022/09/08 08:40:00;;;;;;;5.72;5.10;;;;;;;19.66;73.24;95743.42;1716364;83;21528;-76
2022/09/08 08:42:47;;;;;;;5.87;5.37;;;;;;;19.75;72.37;95734.92;1716134;84;21048;-66
2022/09/08 08:45:31;;;;;;;5.70;5.28;;;;;;;19.88;72.97;95732.45;1715894;84;21089;-71
2022/09/08 08:48:18;;;;;;;5.50;4.95;;;;;;;20.00;72.83;95733.63;1715951;83;21041;-77
2022/09/08 08:51:24;;;;;;;5.72;5.05;;;;;;;19.97;71.67;95732.46;1715279;84;21099;-76
2022/09/08 08:54:19;;;;;;;6.15;5.20;;;;;;;20.00;72.05;95738.50;1716086;84;20997;-77
2022/09/08 08:57:01;;;;;;;6.08;5.00;;;;;;;20.09;72.18;95734.48;1716465;84;21041;-78
2022/09/08 08:59:39;;;;;;;5.87;4.85;;;;;;;20.16;71.65;95731.88;1715684;84;21087;-70
2022/09/08 09:02:20;;;;;;;5.60;5.00;;;;;;;20.26;71.56;95727.73;1716019;84;21037;-68
2022/09/08 09:04:55;;;;;;;5.42;4.92;;;;;;;20.41;71.45;95730.50;1684732;84;20985;-72
2022/09/08 09:07:36;;;;;;;8.85;5.22;;;;;;;20.55;71.16;95735.15;1716261;84;21037;-74
2022/09/08 09:10:50;;;;;;;6.22;4.70;;;;;;;20.60;69.53;95721.01;1716420;83;21036;-69
2022/09/08 09:13:23;;;;;;;;;;;;;;;20.65;68.93;95721.61;1719033;84;21514;-75
2022/09/08 09:16:04;;;;;;;8.28;5.90;;;;;;;20.67;67.39;95709.00;1716025;83;20113;-77
2022/09/08 09:19:21;;;;;;;6.92;6.15;;;;;;;20.85;69.77;95707.94;1716172;83;21546;-78
2022/09/08 09:22:26;;;;;;;6.05;5.45;;;;;;;21.04;69.65;95710.89;1716428;83;21084;-71
2022/09/08 09:25:18;;;;;;;7.97;6.10;;;;;;;21.23;67.01;95710.69;1706777;84;21055;-78
2022/09/08 09:28:10;;;;;;;;;;;;;;;21.23;66.58;95702.64;1718016;84;21014;-69
2022/09/08 09:31:02;;;;;;;7.53;6.37;;;;;;;21.34;67.08;95697.04;1716049;83;20086;-68
2022/09/08 09:33:53;;;;;;;10.88;6.87;;;;;;;21.54;68.13;95699.88;1716561;84;21037;-69
2022/09/08 09:36:57;;;;;;;6.95;5.80;;;;;;;21.65;66.38;95700.59;1688129;84;21171;-67
2022/09/08 09:39:50;;;;;;;7.20;6.50;;;;;;;21.69;66.49;95700.77;1716615;84;21033;-69
2022/09/08 09:43:04;;;;;;;12.82;6.35;;;;;;;21.83;66.78;95699.94;1672073;84;21048;-65
2022/09/08 09:45:57;;;;;;;;;;;;;;;21.89;65.37;95696.00;1718663;83;20993;-65
2022/09/08 09:49:01;;;;;;;7.40;6.10;;;;;;;22.00;64.37;95690.36;1715966;83;20113;-68
2022/09/08 09:51:59;;;;;;;8.40;6.30;;;;;;;22.04;64.95;95686.50;1715990;83;21143;-69
2022/09/08 09:54:56;;;;;;;7.80;7.00;;;;;;;22.15;65.05;95690.34;1676238;84;21045;-73
2022/09/08 09:58:01;;;;;;;9.40;6.55;;;;;;;22.25;63.46;95694.20;1716213;83;21104;-75
2022/09/08 10:00:39;;;;;;;7.10;6.22;;;;;;;22.30;64.32;95692.58;1716277;83;21059;-76
2022/09/08 10:03:48;;;;;;;8.33;7.47;;;;;;;22.41;63.90;95688.25;1675211;84;21104;-75
2022/09/08 10:06:24;;;;;;;7.78;6.97;;;;;;;22.52;64.16;95684.02;1716402;83;21037;-74
2022/09/08 10:09:47;;;;;;;8.05;7.28;;;;;;;22.75;65.35;95686.06;1715970;84;21091;-73
2022/09/08 10:12:50;;;;;;;8.65;6.75;;;;;;;22.90;63.83;95685.54;1714994;83;21214;-74
2022/09/08 10:15:47;;;;;;;10.30;7.60;;;;;;;23.16;63.87;95680.28;1715692;83;21021;-73
2022/09/08 10:18:58;;;;;;;8.18;7.37;;;;;;;23.25;63.01;95681.88;1715479;83;21037;-73
2022/09/08 10:21:53;;;;;;;16.73;7.75;;;;;;;23.38;62.71;95675.66;1715106;84;21002;-74
2022/09/08 10:25:15;;;;;;;9.48;7.85;;;;;;;23.48;63.08;95680.80;1701928;84;21005;-74
2022/09/08 10:28:13;;;;;;;21.12;8.00;;;;;;;23.61;62.16;95678.13;1716772;84;21033;-74
2022/09/08 10:31:00;;;;;;;8.88;7.05;;;;;;;23.81;62.85;95673.59;1716499;83;20977;-74
2022/09/08 10:33:47;;;;;;;14.73;8.38;;;;;;;23.94;61.66;95663.70;1716458;83;21080;-74
2022/09/08 10:36:13;;;;;;;8.75;7.45;;;;;;;23.89;61.00;95662.27;1716692;83;21005;-74
2022/09/08 10:38:57;;;;;;;8.68;7.87;;;;;;;23.85;61.18;95667.52;1716277;84;21346;-74
2022/09/08 10:41:55;;;;;;;8.95;8.15;;;;;;;23.83;60.82;95660.88;1716598;83;21045;-74
2022/09/08 10:44:42;;;;;;;8.93;8.03;;;;;;;23.90;60.70;95655.93;1715381;84;21088;-74
2022/09/08 10:47:36;;;;;;;8.93;8.03;;;;;;;24.01;60.72;95661.41;1715973;83;21472;-74
2022/09/08 10:50:24;;;;;;;9.10;7.75;;;;;;;24.09;59.29;95663.56;1716317;83;21069;-74
2022/09/08 10:53:15;;;;;;;8.73;7.92;;;;;;;24.13;60.39;95657.84;1716374;83;21028;-74
2022/09/08 10:56:02;;;;;;;9.75;8.53;;;;;;;24.15;59.01;95649.17;1715812;84;21088;-74
2022/09/08 10:59:06;;;;;;;8.73;7.92;;;;;;;24.20;59.62;95639.41;1709532;84;21068;-75
2022/09/08 11:01:50;;;;;;;8.30;7.50;;;;;;;24.26;59.53;95640.30;1715078;84;21072;-74
2022/09/08 11:04:48;;;;;;;8.45;7.60;;;;;;;24.43;58.97;95637.73;1716178;84;21079;-75
2022/09/08 11:08:03;;;;;;;8.70;7.67;;;;;;;24.59;58.67;95638.38;1716140;84;21056;-74
2022/09/08 11:11:11;;;;;;;8.50;7.75;;;;;;;24.78;58.79;95637.02;1716393;84;21056;-74
2022/09/08 11:14:03;;;;;;;8.15;7.45;;;;;;;25.09;57.15;95636.06;1716168;83;21061;-75
2022/09/08 11:17:20;;;;;;;9.80;7.10;;;;;;;25.52;58.21;95633.66;1716433;83;21020;-74
2022/09/08 11:20:10;;;;;;;7.75;7.03;;;;;;;25.99;56.47;95629.61;1716465;84;21025;-74
2022/09/08 11:23:04;;;;;;;7.70;6.90;;;;;;;26.49;55.53;95630.95;1716292;84;21037;-75
2022/09/08 11:25:52;;;;;;;11.45;7.17;;;;;;;26.79;53.33;95625.40;1716409;84;21448;-75
2022/09/08 11:28:52;;;;;;;7.33;6.72;;;;;;;26.89;52.51;95626.85;1716116;83;21148;-75
2022/09/08 11:31:35;;;;;;;6.97;6.37;;;;;;;27.28;53.93;95631.29;1686353;84;21013;-75
2022/09/08 11:34:38;;;;;;;9.58;6.62;;;;;;;27.88;52.55;95631.61;1716013;84;21044;-75
2022/09/08 11:37:24;;;;;;;;;;;;;;;28.24;50.11;95625.65;1718908;83;21040;-75
2022/09/08 11:40:14;;;;;;;7.53;5.75;;;;;;;28.39;48.94;95622.58;1716645;82;20110;-75
2022/09/08 11:43:32;;;;;;;8.50;6.00;;;;;;;28.74;49.33;95618.58;1663774;84;21038;-75
2022/09/08 11:46:39;;;;;;;6.60;5.90;;;;;;;29.16;49.45;95619.77;1716018;84;21033;-74
2022/09/08 11:49:36;;;;;;;6.90;5.85;;;;;;;29.46;46.00;95615.53;1719015;83;21036;-74
2022/09/08 11:52:28;;;;;;;7.28;6.10;;;;;;;29.28;44.37;95605.89;1721733;83;21005;-74
2022/09/08 11:55:20;;;;;;;8.70;5.75;;;;;;;29.42;45.44;95611.88;1721999;83;21546;-74
2022/09/08 11:58:01;;;;;;;5.97;5.40;;;;;;;29.65;46.37;95611.95;1722050;83;20969;-75
2022/09/08 12:01:06;;;;;;;11.73;5.67;;;;;;;29.95;44.11;95606.81;1721881;83;21523;-74
2022/09/08 12:04:15;;;;;;;6.72;5.70;;;;;;;30.35;44.06;95600.78;1721750;83;21009;-75
2022/09/08 12:06:56;;;;;;;8.15;5.62;;;;;;;30.66;44.62;95605.41;1721503;83;21041;-74
2022/09/08 12:10:08;;;;;;;6.12;5.60;;;;;;;31.11;42.80;95601.86;1721842;83;21514;-74
2022/09/08 12:12:59;;;;;;;10.13;5.50;;;;;;;31.02;42.85;95594.13;1721797;83;21029;-75
2022/09/08 12:15:49;;;;;;;5.97;5.37;;;;;;;30.95;42.25;95602.56;1721497;82;21152;-75
2022/09/08 12:18:27;;;;;;;6.47;5.50;;;;;;;31.22;42.76;95605.74;1721848;83;21037;-75
2022/09/08 12:21:26;;;;;;;6.85;5.42;;;;;;;31.28;41.82;95601.53;1721616;83;21092;-75
2022/09/08 12:24:32;;;;;;;6.08;5.58;;;;;;;31.47;41.65;95591.87;1721543;83;21646;-75
2022/09/08 12:27:07;;;;;;;6.28;5.80;;;;;;;31.69;41.25;95591.85;1721621;83;21084;-75
2022/09/08 12:29:57;;;;;;;6.10;5.60;;;;;;;31.86;39.90;95589.26;1719088;83;21080;-75
2022/09/08 12:32:53;;;;;;;7.58;5.50;;;;;;;32.20;39.95;95586.59;1721173;83;21578;-75